sensor_id;sensor_type;location;lat;lon;timestamp;P1;durP1;ratioP1;P2;durP2;ratioP2
59271;SDS011;45043;51.068;7.026;2022-08-21T00:02:32;14.77;;;9.17;;
59271;SDS011;45043;51.068;7.026;2022-08-21T00:05:33;15.23;;;8.13;;
59271;SDS011;45043;51.068;7.026;2022-08-21T00:08:37;10.53;;;7.83;;
59271;SDS011;45043;51.068;7.026;2022-08-21T00:11:38;10.90;;;7.60;;
59271;SDS011;45043;51.068;7.026;2022-08-21T00:14:39;13.33;;;7.87;;
59271;SDS011;45043;51.068;7.026;2022-08-21T00:17:40;15.30;;;8.70;;
59271;SDS011;45043;51.068;7.026;2022-08-21T00:20:41;10.67;;;7.43;;
59271;SDS011;45043;51.068;7.026;2022-08-21T00:23:43;11.50;;;8.90;;
59271;SDS011;45043;51.068;7.026;2022-08-21T00:26:44;12.53;;;9.43;;
59271;SDS011;45043;51.068;7.026;2022-08-21T00:29:46;10.93;;;8.67;;
59271;SDS011;45043;51.068;7.026;2022-08-21T00:32:46;11.67;;;8.40;;
59271;SDS011;45043;51.068;7.026;2022-08-21T00:35:47;17.80;;;9.70;;
59271;SDS011;45043;51.068;7.026;2022-08-21T00:38:47;12.33;;;9.07;;
59271;SDS011;45043;51.068;7.026;2022-08-21T00:41:48;15.03;;;8.90;;
59271;SDS011;45043;51.068;7.026;2022-08-21T00:44:49;11.43;;;8.70;;
59271;SDS011;45043;51.068;7.026;2022-08-21T00:47:51;11.13;;;8.30;;
59271;SDS011;45043;51.068;7.026;2022-08-21T00:50:56;12.90;;;8.33;;
59271;SDS011;45043;51.068;7.026;2022-08-21T00:53:59;13.07;;;8.53;;
59271;SDS011;45043;51.068;7.026;2022-08-21T00:57:04;12.13;;;9.57;;
59271;SDS011;45043;51.068;7.026;2022-08-21T01:00:17;15.67;;;9.40;;
59271;SDS011;45043;51.068;7.026;2022-08-21T01:03:24;11.17;;;9.13;;
59271;SDS011;45043;51.068;7.026;2022-08-21T01:06:25;13.20;;;9.77;;
59271;SDS011;45043;51.068;7.026;2022-08-21T01:09:25;11.43;;;9.00;;
59271;SDS011;45043;51.068;7.026;2022-08-21T01:12:26;11.17;;;9.07;;
59271;SDS011;45043;51.068;7.026;2022-08-21T01:15:28;13.57;;;9.37;;
59271;SDS011;45043;51.068;7.026;2022-08-21T01:18:32;12.50;;;8.90;;
59271;SDS011;45043;51.068;7.026;2022-08-21T01:21:32;15.03;;;9.20;;
59271;SDS011;45043;51.068;7.026;2022-08-21T01:24:33;14.90;;;8.93;;
59271;SDS011;45043;51.068;7.026;2022-08-21T01:27:34;10.47;;;8.23;;
59271;SDS011;45043;51.068;7.026;2022-08-21T01:30:35;11.33;;;7.90;;
59271;SDS011;45043;51.068;7.026;2022-08-21T01:33:37;10.80;;;9.30;;
59271;SDS011;45043;51.068;7.026;2022-08-21T01:36:38;11.97;;;9.67;;
59271;SDS011;45043;51.068;7.026;2022-08-21T01:39:39;12.27;;;8.73;;
59271;SDS011;45043;51.068;7.026;2022-08-21T01:42:41;10.50;;;9.10;;
59271;SDS011;45043;51.068;7.026;2022-08-21T01:45:43;14.90;;;9.63;;
59271;SDS011;45043;51.068;7.026;2022-08-21T01:48:43;10.73;;;8.80;;
59271;SDS011;45043;51.068;7.026;2022-08-21T01:51:44;10.87;;;9.77;;
59271;SDS011;45043;51.068;7.026;2022-08-21T01:54:45;10.67;;;9.27;;
59271;SDS011;45043;51.068;7.026;2022-08-21T01:57:46;15.33;;;10.70;;
59271;SDS011;45043;51.068;7.026;2022-08-21T02:00:47;11.30;;;9.90;;
59271;SDS011;45043;51.068;7.026;2022-08-21T02:03:53;11.43;;;10.03;;
59271;SDS011;45043;51.068;7.026;2022-08-21T02:06:54;11.73;;;9.63;;
59271;SDS011;45043;51.068;7.026;2022-08-21T02:09:55;13.40;;;10.00;;
59271;SDS011;45043;51.068;7.026;2022-08-21T02:12:55;11.27;;;9.67;;
59271;SDS011;45043;51.068;7.026;2022-08-21T02:15:57;13.17;;;9.73;;
59271;SDS011;45043;51.068;7.026;2022-08-21T02:18:57;13.20;;;9.50;;
59271;SDS011;45043;51.068;7.026;2022-08-21T02:21:58;13.60;;;10.87;;
59271;SDS011;45043;51.068;7.026;2022-08-21T02:24:58;10.80;;;9.77;;
59271;SDS011;45043;51.068;7.026;2022-08-21T02:27:59;12.43;;;9.27;;
59271;SDS011;45043;51.068;7.026;2022-08-21T02:31:03;12.53;;;9.20;;
59271;SDS011;45043;51.068;7.026;2022-08-21T02:34:05;11.03;;;9.00;;
59271;SDS011;45043;51.068;7.026;2022-08-21T02:37:06;13.40;;;10.00;;
59271;SDS011;45043;51.068;7.026;2022-08-21T02:40:06;13.37;;;8.90;;
59271;SDS011;45043;51.068;7.026;2022-08-21T02:43:09;10.37;;;9.10;;
59271;SDS011;45043;51.068;7.026;2022-08-21T02:46:11;13.47;;;9.47;;
59271;SDS011;45043;51.068;7.026;2022-08-21T02:49:14;12.83;;;9.43;;
59271;SDS011;45043;51.068;7.026;2022-08-21T02:52:14;13.73;;;9.67;;
59271;SDS011;45043;51.068;7.026;2022-08-21T02:55:15;15.13;;;9.13;;
59271;SDS011;45043;51.068;7.026;2022-08-21T02:58:17;14.30;;;9.77;;
59271;SDS011;45043;51.068;7.026;2022-08-21T03:01:20;12.33;;;10.03;;
59271;SDS011;45043;51.068;7.026;2022-08-21T03:04:21;11.80;;;10.00;;
59271;SDS011;45043;51.068;7.026;2022-08-21T03:07:22;11.63;;;9.70;;
59271;SDS011;45043;51.068;7.026;2022-08-21T03:10:23;16.23;;;10.30;;
59271;SDS011;45043;51.068;7.026;2022-08-21T03:13:25;12.27;;;10.07;;
59271;SDS011;45043;51.068;7.026;2022-08-21T03:16:25;16.70;;;10.37;;
59271;SDS011;45043;51.068;7.026;2022-08-21T03:19:26;11.77;;;9.93;;
59271;SDS011;45043;51.068;7.026;2022-08-21T03:22:26;13.97;;;10.53;;
59271;SDS011;45043;51.068;7.026;2022-08-21T03:25:27;14.10;;;9.80;;
59271;SDS011;45043;51.068;7.026;2022-08-21T03:28:28;14.40;;;10.97;;
59271;SDS011;45043;51.068;7.026;2022-08-21T03:31:29;16.37;;;11.80;;
59271;SDS011;45043;51.068;7.026;2022-08-21T03:34:31;13.80;;;10.27;;
59271;SDS011;45043;51.068;7.026;2022-08-21T03:37:31;12.43;;;9.10;;
59271;SDS011;45043;51.068;7.026;2022-08-21T03:40:32;11.87;;;9.77;;
59271;SDS011;45043;51.068;7.026;2022-08-21T03:43:33;13.53;;;9.90;;
59271;SDS011;45043;51.068;7.026;2022-08-21T03:46:34;10.20;;;9.17;;
59271;SDS011;45043;51.068;7.026;2022-08-21T03:49:35;11.37;;;9.70;;
59271;SDS011;45043;51.068;7.026;2022-08-21T03:52:36;12.73;;;9.27;;
59271;SDS011;45043;51.068;7.026;2022-08-21T03:55:36;13.97;;;9.30;;
59271;SDS011;45043;51.068;7.026;2022-08-21T03:58:37;13.20;;;9.77;;
59271;SDS011;45043;51.068;7.026;2022-08-21T04:01:38;12.40;;;10.13;;
59271;SDS011;45043;51.068;7.026;2022-08-21T04:04:39;13.60;;;11.00;;
59271;SDS011;45043;51.068;7.026;2022-08-21T04:07:39;12.73;;;10.23;;
59271;SDS011;45043;51.068;7.026;2022-08-21T04:10:40;12.07;;;10.07;;
59271;SDS011;45043;51.068;7.026;2022-08-21T04:13:41;12.67;;;9.43;;
59271;SDS011;45043;51.068;7.026;2022-08-21T04:16:42;10.67;;;9.47;;
59271;SDS011;45043;51.068;7.026;2022-08-21T04:19:43;11.73;;;9.97;;
59271;SDS011;45043;51.068;7.026;2022-08-21T04:22:45;12.20;;;10.10;;
59271;SDS011;45043;51.068;7.026;2022-08-21T04:25:45;12.17;;;9.50;;
59271;SDS011;45043;51.068;7.026;2022-08-21T04:28:46;13.97;;;10.50;;
59271;SDS011;45043;51.068;7.026;2022-08-21T04:31:46;14.30;;;10.17;;
59271;SDS011;45043;51.068;7.026;2022-08-21T04:34:47;15.40;;;10.77;;
59271;SDS011;45043;51.068;7.026;2022-08-21T04:37:47;12.80;;;9.80;;
59271;SDS011;45043;51.068;7.026;2022-08-21T04:40:49;13.17;;;10.30;;
59271;SDS011;45043;51.068;7.026;2022-08-21T04:43:50;14.63;;;10.57;;
59271;SDS011;45043;51.068;7.026;2022-08-21T04:46:51;15.00;;;10.03;;
59271;SDS011;45043;51.068;7.026;2022-08-21T04:49:51;16.63;;;11.13;;
59271;SDS011;45043;51.068;7.026;2022-08-21T04:52:52;16.70;;;10.80;;
59271;SDS011;45043;51.068;7.026;2022-08-21T04:55:53;14.50;;;10.07;;
59271;SDS011;45043;51.068;7.026;2022-08-21T04:58:57;10.90;;;9.60;;
59271;SDS011;45043;51.068;7.026;2022-08-21T05:01:59;13.03;;;10.40;;
59271;SDS011;45043;51.068;7.026;2022-08-21T05:05:01;13.37;;;9.83;;
59271;SDS011;45043;51.068;7.026;2022-08-21T05:08:02;11.47;;;10.10;;
59271;SDS011;45043;51.068;7.026;2022-08-21T05:11:04;13.87;;;10.60;;
59271;SDS011;45043;51.068;7.026;2022-08-21T05:14:04;14.90;;;11.10;;
59271;SDS011;45043;51.068;7.026;2022-08-21T05:17:05;13.83;;;10.60;;
59271;SDS011;45043;51.068;7.026;2022-08-21T05:20:06;13.67;;;11.03;;
59271;SDS011;45043;51.068;7.026;2022-08-21T05:23:08;16.43;;;11.37;;
59271;SDS011;45043;51.068;7.026;2022-08-21T05:26:10;16.27;;;10.93;;
59271;SDS011;45043;51.068;7.026;2022-08-21T05:29:10;16.63;;;9.83;;
59271;SDS011;45043;51.068;7.026;2022-08-21T05:32:13;16.23;;;10.63;;
59271;SDS011;45043;51.068;7.026;2022-08-21T05:35:14;14.40;;;9.47;;
59271;SDS011;45043;51.068;7.026;2022-08-21T05:38:15;13.00;;;9.03;;
59271;SDS011;45043;51.068;7.026;2022-08-21T05:41:15;13.97;;;9.83;;
59271;SDS011;45043;51.068;7.026;2022-08-21T05:44:16;15.10;;;10.30;;
59271;SDS011;45043;51.068;7.026;2022-08-21T05:47:16;10.57;;;9.17;;
59271;SDS011;45043;51.068;7.026;2022-08-21T05:50:17;15.53;;;9.07;;
59271;SDS011;45043;51.068;7.026;2022-08-21T05:53:18;12.33;;;9.03;;
59271;SDS011;45043;51.068;7.026;2022-08-21T05:56:20;11.40;;;9.87;;
59271;SDS011;45043;51.068;7.026;2022-08-21T05:59:21;14.43;;;9.83;;
59271;SDS011;45043;51.068;7.026;2022-08-21T06:02:22;11.80;;;9.80;;
59271;SDS011;45043;51.068;7.026;2022-08-21T06:05:22;13.10;;;9.73;;
59271;SDS011;45043;51.068;7.026;2022-08-21T06:08:24;13.10;;;11.00;;
59271;SDS011;45043;51.068;7.026;2022-08-21T06:11:25;14.73;;;10.00;;
59271;SDS011;45043;51.068;7.026;2022-08-21T06:14:25;13.13;;;10.33;;
59271;SDS011;45043;51.068;7.026;2022-08-21T06:17:25;11.93;;;9.17;;
59271;SDS011;45043;51.068;7.026;2022-08-21T06:20:26;11.53;;;9.47;;
59271;SDS011;45043;51.068;7.026;2022-08-21T06:23:28;13.43;;;10.47;;
59271;SDS011;45043;51.068;7.026;2022-08-21T06:26:28;13.33;;;9.73;;
59271;SDS011;45043;51.068;7.026;2022-08-21T06:29:29;11.40;;;9.53;;
59271;SDS011;45043;51.068;7.026;2022-08-21T06:32:29;13.10;;;9.53;;
59271;SDS011;45043;51.068;7.026;2022-08-21T06:35:30;14.63;;;9.87;;
59271;SDS011;45043;51.068;7.026;2022-08-21T06:38:30;22.33;;;10.73;;
59271;SDS011;45043;51.068;7.026;2022-08-21T06:41:31;12.47;;;9.83;;
59271;SDS011;45043;51.068;7.026;2022-08-21T06:44:32;12.27;;;9.37;;
59271;SDS011;45043;51.068;7.026;2022-08-21T06:47:33;13.57;;;10.00;;
59271;SDS011;45043;51.068;7.026;2022-08-21T06:50:33;15.93;;;9.87;;
59271;SDS011;45043;51.068;7.026;2022-08-21T06:53:35;12.47;;;9.40;;
59271;SDS011;45043;51.068;7.026;2022-08-21T06:56:35;11.40;;;10.07;;
59271;SDS011;45043;51.068;7.026;2022-08-21T06:59:38;11.77;;;8.50;;
59271;SDS011;45043;51.068;7.026;2022-08-21T07:02:38;13.37;;;9.47;;
59271;SDS011;45043;51.068;7.026;2022-08-21T07:05:39;13.20;;;9.10;;
59271;SDS011;45043;51.068;7.026;2022-08-21T07:08:40;12.57;;;8.57;;
59271;SDS011;45043;51.068;7.026;2022-08-21T07:11:40;14.77;;;10.60;;
59271;SDS011;45043;51.068;7.026;2022-08-21T07:14:41;11.33;;;8.60;;
59271;SDS011;45043;51.068;7.026;2022-08-21T07:17:42;13.13;;;9.07;;
59271;SDS011;45043;51.068;7.026;2022-08-21T07:20:43;10.63;;;9.20;;
59271;SDS011;45043;51.068;7.026;2022-08-21T07:23:46;13.33;;;8.40;;
59271;SDS011;45043;51.068;7.026;2022-08-21T07:26:49;11.73;;;8.50;;
59271;SDS011;45043;51.068;7.026;2022-08-21T07:29:49;13.27;;;9.47;;
59271;SDS011;45043;51.068;7.026;2022-08-21T07:32:50;9.40;;;7.53;;
59271;SDS011;45043;51.068;7.026;2022-08-21T07:35:51;12.53;;;8.33;;
59271;SDS011;45043;51.068;7.026;2022-08-21T07:38:52;9.43;;;7.57;;
59271;SDS011;45043;51.068;7.026;2022-08-21T07:41:52;11.27;;;7.53;;
59271;SDS011;45043;51.068;7.026;2022-08-21T07:44:54;11.70;;;7.27;;
59271;SDS011;45043;51.068;7.026;2022-08-21T07:47:58;13.33;;;8.47;;
59271;SDS011;45043;51.068;7.026;2022-08-21T07:50:58;12.17;;;7.53;;
59271;SDS011;45043;51.068;7.026;2022-08-21T07:54:05;11.20;;;7.83;;
59271;SDS011;45043;51.068;7.026;2022-08-21T07:57:06;13.03;;;7.27;;
59271;SDS011;45043;51.068;7.026;2022-08-21T08:00:08;9.70;;;6.87;;
59271;SDS011;45043;51.068;7.026;2022-08-21T08:03:13;9.70;;;5.90;;
59271;SDS011;45043;51.068;7.026;2022-08-21T08:06:13;9.47;;;5.63;;
59271;SDS011;45043;51.068;7.026;2022-08-21T08:09:14;10.27;;;5.70;;
59271;SDS011;45043;51.068;7.026;2022-08-21T08:12:15;9.50;;;5.27;;
59271;SDS011;45043;51.068;7.026;2022-08-21T08:15:21;8.63;;;5.33;;
59271;SDS011;45043;51.068;7.026;2022-08-21T08:18:24;9.47;;;5.30;;
59271;SDS011;45043;51.068;7.026;2022-08-21T08:21:25;9.13;;;5.87;;
59271;SDS011;45043;51.068;7.026;2022-08-21T08:24:26;14.10;;;7.20;;
59271;SDS011;45043;51.068;7.026;2022-08-21T08:27:28;7.70;;;5.13;;
59271;SDS011;45043;51.068;7.026;2022-08-21T08:30:28;10.73;;;5.33;;
59271;SDS011;45043;51.068;7.026;2022-08-21T08:33:28;12.27;;;5.53;;
59271;SDS011;45043;51.068;7.026;2022-08-21T08:36:33;8.50;;;5.40;;
59271;SDS011;45043;51.068;7.026;2022-08-21T08:39:37;8.17;;;4.33;;
59271;SDS011;45043;51.068;7.026;2022-08-21T08:42:38;6.73;;;3.90;;
59271;SDS011;45043;51.068;7.026;2022-08-21T08:45:40;6.90;;;3.90;;
59271;SDS011;45043;51.068;7.026;2022-08-21T08:48:50;7.40;;;3.90;;
59271;SDS011;45043;51.068;7.026;2022-08-21T08:52:11;10.13;;;3.73;;
59271;SDS011;45043;51.068;7.026;2022-08-21T08:55:37;8.03;;;3.70;;
59271;SDS011;45043;51.068;7.026;2022-08-21T08:58:41;9.10;;;3.50;;
59271;SDS011;45043;51.068;7.026;2022-08-21T09:01:45;8.63;;;4.07;;
59271;SDS011;45043;51.068;7.026;2022-08-21T09:04:46;7.03;;;3.67;;
59271;SDS011;45043;51.068;7.026;2022-08-21T09:07:52;10.17;;;3.80;;
59271;SDS011;45043;51.068;7.026;2022-08-21T09:14:58;9.10;;;3.60;;
59271;SDS011;45043;51.068;7.026;2022-08-21T09:21:27;5.33;;;3.53;;
59271;SDS011;45043;51.068;7.026;2022-08-21T09:24:32;9.63;;;4.97;;
59271;SDS011;45043;51.068;7.026;2022-08-21T09:27:44;10.40;;;3.40;;
59271;SDS011;45043;51.068;7.026;2022-08-21T09:30:44;8.57;;;3.43;;
59271;SDS011;45043;51.068;7.026;2022-08-21T09:33:45;7.40;;;2.90;;
59271;SDS011;45043;51.068;7.026;2022-08-21T09:36:47;5.23;;;3.13;;
59271;SDS011;45043;51.068;7.026;2022-08-21T09:39:50;9.03;;;3.70;;
59271;SDS011;45043;51.068;7.026;2022-08-21T09:42:55;7.77;;;3.60;;
59271;SDS011;45043;51.068;7.026;2022-08-21T09:46:49;5.03;;;2.83;;
59271;SDS011;45043;51.068;7.026;2022-08-21T09:49:30;5.00;;;2.80;;
59271;SDS011;45043;51.068;7.026;2022-08-21T09:52:35;8.27;;;3.43;;
59271;SDS011;45043;51.068;7.026;2022-08-21T09:59:13;7.33;;;2.90;;
59271;SDS011;45043;51.068;7.026;2022-08-21T10:02:34;8.33;;;3.13;;
59271;SDS011;45043;51.068;7.026;2022-08-21T10:05:36;5.27;;;2.90;;
59271;SDS011;45043;51.068;7.026;2022-08-21T10:08:38;7.70;;;3.60;;
59271;SDS011;45043;51.068;7.026;2022-08-21T10:11:40;5.37;;;3.20;;
59271;SDS011;45043;51.068;7.026;2022-08-21T10:18:37;8.43;;;3.00;;
59271;SDS011;45043;51.068;7.026;2022-08-21T10:21:48;8.47;;;2.60;;
59271;SDS011;45043;51.068;7.026;2022-08-21T10:28:44;7.93;;;2.80;;
59271;SDS011;45043;51.068;7.026;2022-08-21T10:48:47;5.47;;;2.33;;
59271;SDS011;45043;51.068;7.026;2022-08-21T10:55:40;4.40;;;2.60;;
59271;SDS011;45043;51.068;7.026;2022-08-21T10:58:45;4.87;;;2.20;;
59271;SDS011;45043;51.068;7.026;2022-08-21T11:01:59;4.80;;;2.10;;
59271;SDS011;45043;51.068;7.026;2022-08-21T11:05:14;5.03;;;2.30;;
59271;SDS011;45043;51.068;7.026;2022-08-21T11:08:24;4.33;;;2.60;;
59271;SDS011;45043;51.068;7.026;2022-08-21T11:11:32;4.30;;;2.43;;
59271;SDS011;45043;51.068;7.026;2022-08-21T11:17:57;8.07;;;2.43;;
59271;SDS011;45043;51.068;7.026;2022-08-21T11:27:58;5.80;;;2.57;;
59271;SDS011;45043;51.068;7.026;2022-08-21T11:34:35;6.30;;;2.13;;
59271;SDS011;45043;51.068;7.026;2022-08-21T11:44:16;6.07;;;2.10;;
59271;SDS011;45043;51.068;7.026;2022-08-21T11:50:54;5.57;;;2.30;;
59271;SDS011;45043;51.068;7.026;2022-08-21T11:54:00;6.00;;;2.50;;
59271;SDS011;45043;51.068;7.026;2022-08-21T11:57:46;3.70;;;1.97;;
59271;SDS011;45043;51.068;7.026;2022-08-21T12:01:16;4.83;;;2.20;;
59271;SDS011;45043;51.068;7.026;2022-08-21T12:04:27;3.67;;;2.50;;
59271;SDS011;45043;51.068;7.026;2022-08-21T12:07:42;36.53;;;10.17;;
59271;SDS011;45043;51.068;7.026;2022-08-21T12:10:59;5.90;;;2.63;;
59271;SDS011;45043;51.068;7.026;2022-08-21T12:17:07;3.67;;;1.97;;
59271;SDS011;45043;51.068;7.026;2022-08-21T12:20:25;3.40;;;1.80;;
59271;SDS011;45043;51.068;7.026;2022-08-21T12:23:30;3.90;;;2.30;;
59271;SDS011;45043;51.068;7.026;2022-08-21T12:26:35;4.37;;;2.50;;
59271;SDS011;45043;51.068;7.026;2022-08-21T12:29:49;4.63;;;2.17;;
59271;SDS011;45043;51.068;7.026;2022-08-21T12:32:58;4.47;;;1.90;;
59271;SDS011;45043;51.068;7.026;2022-08-21T12:36:18;5.57;;;2.30;;
59271;SDS011;45043;51.068;7.026;2022-08-21T12:39:24;5.40;;;2.17;;
59271;SDS011;45043;51.068;7.026;2022-08-21T12:42:33;5.87;;;2.60;;
59271;SDS011;45043;51.068;7.026;2022-08-21T12:45:41;4.07;;;2.00;;
59271;SDS011;45043;51.068;7.026;2022-08-21T12:48:47;4.40;;;2.03;;
59271;SDS011;45043;51.068;7.026;2022-08-21T12:52:01;5.20;;;2.20;;
59271;SDS011;45043;51.068;7.026;2022-08-21T12:55:13;4.00;;;2.03;;
59271;SDS011;45043;51.068;7.026;2022-08-21T12:58:21;3.67;;;2.13;;
59271;SDS011;45043;51.068;7.026;2022-08-21T13:01:25;3.43;;;1.83;;
59271;SDS011;45043;51.068;7.026;2022-08-21T13:04:39;4.43;;;2.10;;
59271;SDS011;45043;51.068;7.026;2022-08-21T13:07:46;5.00;;;2.17;;
59271;SDS011;45043;51.068;7.026;2022-08-21T13:10:49;6.93;;;2.10;;
59271;SDS011;45043;51.068;7.026;2022-08-21T13:13:58;5.20;;;2.20;;
59271;SDS011;45043;51.068;7.026;2022-08-21T13:17:05;7.07;;;2.47;;
59271;SDS011;45043;51.068;7.026;2022-08-21T13:20:18;5.37;;;2.23;;
59271;SDS011;45043;51.068;7.026;2022-08-21T13:23:26;3.43;;;2.17;;
59271;SDS011;45043;51.068;7.026;2022-08-21T13:26:28;3.60;;;1.90;;
59271;SDS011;45043;51.068;7.026;2022-08-21T13:29:30;5.87;;;2.30;;
59271;SDS011;45043;51.068;7.026;2022-08-21T13:32:35;4.20;;;2.10;;
59271;SDS011;45043;51.068;7.026;2022-08-21T13:38:51;4.20;;;1.93;;
59271;SDS011;45043;51.068;7.026;2022-08-21T13:41:55;5.67;;;2.80;;
59271;SDS011;45043;51.068;7.026;2022-08-21T13:44:57;6.47;;;2.33;;
59271;SDS011;45043;51.068;7.026;2022-08-21T13:47:59;5.07;;;2.40;;
59271;SDS011;45043;51.068;7.026;2022-08-21T13:51:02;5.63;;;2.40;;
59271;SDS011;45043;51.068;7.026;2022-08-21T13:54:14;4.53;;;2.10;;
59271;SDS011;45043;51.068;7.026;2022-08-21T13:57:29;5.03;;;2.40;;
59271;SDS011;45043;51.068;7.026;2022-08-21T14:00:34;3.57;;;2.33;;
59271;SDS011;45043;51.068;7.026;2022-08-21T14:03:43;6.13;;;2.30;;
59271;SDS011;45043;51.068;7.026;2022-08-21T14:06:47;4.77;;;2.73;;
59271;SDS011;45043;51.068;7.026;2022-08-21T14:09:48;4.07;;;2.10;;
59271;SDS011;45043;51.068;7.026;2022-08-21T14:12:53;5.20;;;2.30;;
59271;SDS011;45043;51.068;7.026;2022-08-21T14:15:58;3.63;;;2.20;;
59271;SDS011;45043;51.068;7.026;2022-08-21T14:22:02;3.40;;;1.93;;
59271;SDS011;45043;51.068;7.026;2022-08-21T14:28:26;5.20;;;2.50;;
59271;SDS011;45043;51.068;7.026;2022-08-21T14:31:33;3.43;;;2.20;;
59271;SDS011;45043;51.068;7.026;2022-08-21T14:34:34;4.60;;;1.83;;
59271;SDS011;45043;51.068;7.026;2022-08-21T14:37:35;2.93;;;1.90;;
59271;SDS011;45043;51.068;7.026;2022-08-21T14:40:36;4.50;;;2.17;;
59271;SDS011;45043;51.068;7.026;2022-08-21T14:43:36;3.63;;;1.90;;
59271;SDS011;45043;51.068;7.026;2022-08-21T14:46:37;3.37;;;1.90;;
59271;SDS011;45043;51.068;7.026;2022-08-21T14:49:37;4.07;;;1.70;;
59271;SDS011;45043;51.068;7.026;2022-08-21T14:52:39;2.95;;;1.92;;
59271;SDS011;45043;51.068;7.026;2022-08-21T14:55:40;4.20;;;2.00;;
59271;SDS011;45043;51.068;7.026;2022-08-21T14:59:01;2.73;;;1.83;;
59271;SDS011;45043;51.068;7.026;2022-08-21T15:02:05;3.87;;;1.87;;
59271;SDS011;45043;51.068;7.026;2022-08-21T15:05:07;4.30;;;1.80;;
59271;SDS011;45043;51.068;7.026;2022-08-21T15:08:07;5.40;;;2.13;;
59271;SDS011;45043;51.068;7.026;2022-08-21T15:11:08;3.87;;;1.67;;
59271;SDS011;45043;51.068;7.026;2022-08-21T15:14:17;3.33;;;1.67;;
59271;SDS011;45043;51.068;7.026;2022-08-21T15:17:20;4.10;;;1.80;;
59271;SDS011;45043;51.068;7.026;2022-08-21T15:20:21;1.70;;;1.60;;
59271;SDS011;45043;51.068;7.026;2022-08-21T15:23:21;3.87;;;1.53;;
59271;SDS011;45043;51.068;7.026;2022-08-21T15:26:22;3.77;;;1.80;;
59271;SDS011;45043;51.068;7.026;2022-08-21T15:29:23;4.40;;;1.70;;
59271;SDS011;45043;51.068;7.026;2022-08-21T15:32:25;3.80;;;1.83;;
59271;SDS011;45043;51.068;7.026;2022-08-21T15:35:29;2.47;;;1.73;;
59271;SDS011;45043;51.068;7.026;2022-08-21T15:38:29;3.47;;;1.80;;
59271;SDS011;45043;51.068;7.026;2022-08-21T15:41:30;2.30;;;1.70;;
59271;SDS011;45043;51.068;7.026;2022-08-21T15:44:31;3.37;;;1.77;;
59271;SDS011;45043;51.068;7.026;2022-08-21T15:47:32;6.00;;;1.80;;
59271;SDS011;45043;51.068;7.026;2022-08-21T15:50:34;3.27;;;1.97;;
59271;SDS011;45043;51.068;7.026;2022-08-21T15:53:35;4.47;;;1.90;;
59271;SDS011;45043;51.068;7.026;2022-08-21T15:56:39;4.37;;;2.00;;
59271;SDS011;45043;51.068;7.026;2022-08-21T15:59:44;3.57;;;1.67;;
59271;SDS011;45043;51.068;7.026;2022-08-21T16:02:47;5.23;;;2.00;;
59271;SDS011;45043;51.068;7.026;2022-08-21T16:05:53;1.90;;;1.40;;
59271;SDS011;45043;51.068;7.026;2022-08-21T16:08:55;2.30;;;1.70;;
59271;SDS011;45043;51.068;7.026;2022-08-21T16:11:56;4.60;;;1.87;;
59271;SDS011;45043;51.068;7.026;2022-08-21T16:14:59;3.13;;;1.87;;
59271;SDS011;45043;51.068;7.026;2022-08-21T16:18:02;3.30;;;1.90;;
59271;SDS011;45043;51.068;7.026;2022-08-21T16:21:02;3.77;;;1.80;;
59271;SDS011;45043;51.068;7.026;2022-08-21T16:24:03;6.10;;;2.13;;
59271;SDS011;45043;51.068;7.026;2022-08-21T16:27:03;5.47;;;1.70;;
59271;SDS011;45043;51.068;7.026;2022-08-21T16:30:05;3.87;;;1.97;;
59271;SDS011;45043;51.068;7.026;2022-08-21T16:33:06;3.43;;;1.70;;
59271;SDS011;45043;51.068;7.026;2022-08-21T16:36:14;3.57;;;1.87;;
59271;SDS011;45043;51.068;7.026;2022-08-21T16:39:15;3.47;;;2.03;;
59271;SDS011;45043;51.068;7.026;2022-08-21T16:42:16;3.67;;;2.10;;
59271;SDS011;45043;51.068;7.026;2022-08-21T16:45:20;3.07;;;1.77;;
59271;SDS011;45043;51.068;7.026;2022-08-21T16:48:21;4.00;;;1.90;;
59271;SDS011;45043;51.068;7.026;2022-08-21T16:51:22;5.00;;;2.20;;
59271;SDS011;45043;51.068;7.026;2022-08-21T16:54:23;3.53;;;1.63;;
59271;SDS011;45043;51.068;7.026;2022-08-21T16:57:24;2.90;;;1.60;;
59271;SDS011;45043;51.068;7.026;2022-08-21T17:00:25;5.07;;;2.10;;
59271;SDS011;45043;51.068;7.026;2022-08-21T17:03:30;4.47;;;1.70;;
59271;SDS011;45043;51.068;7.026;2022-08-21T17:06:34;3.60;;;1.90;;
59271;SDS011;45043;51.068;7.026;2022-08-21T17:09:34;3.07;;;1.90;;
59271;SDS011;45043;51.068;7.026;2022-08-21T17:12:35;5.07;;;2.20;;
59271;SDS011;45043;51.068;7.026;2022-08-21T17:15:36;3.57;;;1.80;;
59271;SDS011;45043;51.068;7.026;2022-08-21T17:18:37;2.37;;;1.60;;
59271;SDS011;45043;51.068;7.026;2022-08-21T17:21:38;2.93;;;1.80;;
59271;SDS011;45043;51.068;7.026;2022-08-21T17:24:38;4.13;;;1.90;;
59271;SDS011;45043;51.068;7.026;2022-08-21T17:27:39;2.67;;;1.70;;
59271;SDS011;45043;51.068;7.026;2022-08-21T17:30:43;3.13;;;1.60;;
59271;SDS011;45043;51.068;7.026;2022-08-21T17:33:47;4.13;;;1.80;;
59271;SDS011;45043;51.068;7.026;2022-08-21T17:36:50;2.80;;;1.43;;
59271;SDS011;45043;51.068;7.026;2022-08-21T17:39:52;3.03;;;1.70;;
59271;SDS011;45043;51.068;7.026;2022-08-21T17:42:52;4.63;;;2.10;;
59271;SDS011;45043;51.068;7.026;2022-08-21T17:45:52;3.80;;;1.80;;
59271;SDS011;45043;51.068;7.026;2022-08-21T17:48:53;4.20;;;1.90;;
59271;SDS011;45043;51.068;7.026;2022-08-21T17:51:54;1.93;;;1.60;;
59271;SDS011;45043;51.068;7.026;2022-08-21T17:54:55;4.47;;;1.70;;
59271;SDS011;45043;51.068;7.026;2022-08-21T17:57:55;2.73;;;2.00;;
59271;SDS011;45043;51.068;7.026;2022-08-21T18:00:56;2.63;;;1.63;;
59271;SDS011;45043;51.068;7.026;2022-08-21T18:04:03;4.63;;;1.90;;
59271;SDS011;45043;51.068;7.026;2022-08-21T18:07:04;5.43;;;1.90;;
59271;SDS011;45043;51.068;7.026;2022-08-21T18:10:06;4.17;;;1.90;;
59271;SDS011;45043;51.068;7.026;2022-08-21T18:13:11;4.53;;;1.93;;
59271;SDS011;45043;51.068;7.026;2022-08-21T18:16:14;3.40;;;1.90;;
59271;SDS011;45043;51.068;7.026;2022-08-21T18:19:18;4.40;;;1.70;;
59271;SDS011;45043;51.068;7.026;2022-08-21T18:22:24;3.20;;;1.70;;
59271;SDS011;45043;51.068;7.026;2022-08-21T18:25:25;3.40;;;1.77;;
59271;SDS011;45043;51.068;7.026;2022-08-21T18:28:28;3.73;;;1.90;;
59271;SDS011;45043;51.068;7.026;2022-08-21T18:31:29;4.50;;;1.90;;
59271;SDS011;45043;51.068;7.026;2022-08-21T18:34:36;5.20;;;2.07;;
59271;SDS011;45043;51.068;7.026;2022-08-21T18:37:40;7.60;;;2.00;;
59271;SDS011;45043;51.068;7.026;2022-08-21T18:40:43;3.80;;;2.07;;
59271;SDS011;45043;51.068;7.026;2022-08-21T18:43:46;4.27;;;1.90;;
59271;SDS011;45043;51.068;7.026;2022-08-21T18:46:49;3.97;;;2.00;;
59271;SDS011;45043;51.068;7.026;2022-08-21T18:49:55;2.83;;;1.70;;
59271;SDS011;45043;51.068;7.026;2022-08-21T18:52:55;5.70;;;1.97;;
59271;SDS011;45043;51.068;7.026;2022-08-21T18:55:56;5.40;;;2.00;;
59271;SDS011;45043;51.068;7.026;2022-08-21T18:58:57;4.67;;;2.10;;
59271;SDS011;45043;51.068;7.026;2022-08-21T19:01:57;3.07;;;1.93;;
59271;SDS011;45043;51.068;7.026;2022-08-21T19:04:58;5.70;;;2.00;;
59271;SDS011;45043;51.068;7.026;2022-08-21T19:07:59;5.20;;;2.20;;
59271;SDS011;45043;51.068;7.026;2022-08-21T19:11:00;5.50;;;2.00;;
59271;SDS011;45043;51.068;7.026;2022-08-21T19:14:02;5.33;;;1.73;;
59271;SDS011;45043;51.068;7.026;2022-08-21T19:17:05;4.37;;;1.97;;
59271;SDS011;45043;51.068;7.026;2022-08-21T19:20:17;5.87;;;2.10;;
59271;SDS011;45043;51.068;7.026;2022-08-21T19:23:24;4.97;;;1.83;;
59271;SDS011;45043;51.068;7.026;2022-08-21T19:26:27;5.43;;;2.10;;
59271;SDS011;45043;51.068;7.026;2022-08-21T19:29:28;4.23;;;2.17;;
59271;SDS011;45043;51.068;7.026;2022-08-21T19:32:29;6.07;;;2.10;;